createdAt,value
2022-12-26T00:57:40.010Z,25.30
2022-12-26T01:18:39.392Z,25.32
2022-12-26T01:19:39.348Z,25.29
2022-12-26T01:20:39.343Z,25.29
2022-12-26T01:21:39.302Z,25.29
2022-12-26T01:22:39.369Z,25.29
2022-12-26T01:23:39.265Z,25.30
2022-12-26T01:24:39.219Z,25.30
2022-12-26T01:26:15.045Z,25.29
2022-12-26T01:26:39.207Z,25.29
2022-12-26T01:27:39.120Z,25.28
2022-12-26T01:28:39.099Z,25.29
2022-12-26T01:29:39.065Z,25.29
2022-12-26T01:30:39.047Z,25.30
2022-12-26T01:31:39.095Z,25.29
2022-12-26T01:32:38.984Z,25.28
2022-12-26T01:33:38.969Z,25.28
2022-12-26T01:34:38.926Z,25.29
2022-12-26T01:35:38.893Z,25.29
2022-12-26T01:36:38.862Z,25.30
2022-12-26T01:37:38.835Z,25.28
2022-12-26T01:38:38.810Z,25.29
2022-12-26T01:39:38.784Z,25.28
2022-12-26T01:40:38.757Z,25.29
2022-12-26T01:41:38.728Z,25.30
2022-12-26T01:42:38.720Z,25.28
2022-12-26T01:43:38.668Z,25.29
2022-12-26T01:44:38.636Z,25.26
2022-12-26T01:45:38.678Z,25.28
2022-12-26T01:46:38.581Z,25.28
2022-12-26T01:47:38.549Z,25.29
2022-12-26T01:48:38.527Z,25.29
2022-12-26T01:49:38.498Z,25.28
2022-12-26T01:50:38.466Z,25.30
2022-12-26T01:51:38.448Z,25.29
2022-12-26T01:52:38.427Z,25.30
2022-12-26T01:53:38.393Z,25.28
2022-12-26T01:54:42.572Z,25.29
2022-12-26T01:55:38.556Z,25.29
2022-12-26T01:56:38.543Z,25.28
2022-12-26T01:57:38.502Z,25.26
2022-12-26T01:58:38.505Z,25.28
2022-12-26T01:59:38.445Z,25.29
2022-12-26T02:00:38.465Z,25.28
2022-12-26T02:01:38.556Z,25.28
2022-12-26T02:02:38.502Z,25.28
2022-12-26T02:03:38.333Z,25.30
2022-12-26T02:04:38.309Z,25.26
2022-12-26T02:05:38.307Z,25.28
2022-12-26T02:06:38.250Z,25.28
2022-12-26T02:07:38.243Z,25.30
2022-12-26T02:08:38.198Z,25.28
2022-12-26T02:09:38.169Z,25.25
2022-12-26T02:10:38.148Z,25.29
2022-12-26T02:11:38.115Z,25.28
2022-12-26T02:12:39.316Z,25.28
2022-12-26T02:13:38.054Z,25.26
2022-12-26T02:14:38.045Z,25.28
2022-12-26T02:15:37.992Z,25.26
2022-12-26T02:16:38.018Z,25.28
2022-12-26T02:17:37.939Z,25.29
2022-12-26T02:18:37.916Z,25.30
2022-12-26T02:19:37.878Z,25.28
2022-12-26T02:20:37.851Z,25.29
2022-12-26T02:21:37.826Z,25.26
2022-12-26T02:22:37.810Z,25.26
2022-12-26T02:23:37.786Z,25.25
2022-12-26T02:24:37.755Z,25.25
2022-12-26T02:25:37.717Z,25.29
2022-12-26T02:26:37.690Z,25.28
2022-12-26T02:27:37.662Z,25.28
2022-12-26T02:28:37.636Z,25.26
2022-12-26T02:29:37.622Z,25.25
2022-12-26T02:30:37.605Z,25.28
2022-12-26T02:31:37.624Z,25.29
2022-12-26T02:32:37.517Z,25.28
2022-12-26T02:33:37.496Z,25.29
2022-12-26T02:34:37.505Z,25.28
2022-12-26T02:35:37.444Z,25.26
2022-12-26T02:36:37.408Z,25.26
2022-12-26T02:37:37.381Z,25.29
2022-12-26T02:38:37.358Z,25.26
2022-12-26T02:39:44.529Z,25.28
2022-12-26T02:40:37.307Z,25.28
2022-12-26T02:41:37.270Z,25.26
2022-12-26T02:42:37.240Z,25.28
2022-12-26T02:43:37.233Z,25.29
2022-12-26T02:44:37.201Z,25.26
2022-12-26T02:45:37.183Z,25.25
2022-12-26T02:46:37.157Z,25.26
2022-12-26T02:47:37.103Z,25.28
2022-12-26T02:48:37.076Z,25.26
2022-12-26T02:49:37.053Z,25.25
2022-12-26T02:50:37.019Z,25.28
2022-12-26T02:51:36.994Z,25.28
2022-12-26T02:52:36.957Z,25.25
2022-12-26T02:53:36.924Z,25.26
2022-12-26T02:54:36.904Z,25.26
2022-12-26T02:55:36.870Z,25.28
2022-12-26T02:56:36.840Z,25.25
2022-12-26T02:57:36.818Z,25.25
2022-12-26T02:58:36.783Z,25.28
2022-12-26T02:59:56.149Z,25.26
2022-12-26T03:00:36.728Z,25.28
2022-12-26T03:01:36.798Z,25.25
2022-12-26T03:02:36.873Z,25.26
2022-12-26T03:03:36.650Z,25.28
2022-12-26T03:04:36.629Z,25.28
2022-12-26T03:05:36.603Z,25.25
2022-12-26T03:06:36.589Z,25.28
2022-12-26T03:07:36.560Z,25.25
2022-12-26T03:08:36.537Z,25.28
2022-12-26T03:09:36.519Z,25.28
2022-12-26T03:10:36.473Z,25.25
2022-12-26T03:11:36.449Z,25.26
2022-12-26T03:12:36.421Z,25.28
2022-12-26T03:13:36.403Z,25.26
2022-12-26T03:14:36.394Z,25.23
2022-12-26T03:15:36.348Z,25.25
2022-12-26T03:16:36.437Z,25.25
2022-12-26T03:17:36.311Z,25.28
2022-12-26T03:18:58.451Z,25.26
2022-12-26T03:19:36.269Z,25.28
2022-12-26T03:20:36.231Z,25.26
2022-12-26T03:21:36.202Z,25.23
2022-12-26T03:22:36.174Z,25.26
2022-12-26T03:23:36.150Z,25.26
2022-12-26T03:24:36.138Z,25.25
2022-12-26T03:25:36.105Z,25.25
2022-12-26T03:26:36.096Z,25.28
2022-12-26T03:27:36.061Z,25.26
2022-12-26T03:28:36.038Z,25.25
2022-12-26T03:29:36.022Z,25.25
2022-12-26T03:30:36.015Z,25.26
2022-12-26T03:31:35.958Z,25.26
2022-12-26T03:32:35.932Z,25.25
2022-12-26T03:33:35.920Z,25.26
2022-12-26T03:34:35.910Z,25.26
2022-12-26T03:35:35.870Z,25.23
2022-12-26T03:36:35.846Z,25.26
2022-12-26T03:37:48.516Z,25.26
2022-12-26T03:38:35.807Z,25.26
2022-12-26T03:39:35.778Z,25.25
2022-12-26T03:40:35.756Z,25.26
2022-12-26T03:41:35.747Z,25.28
2022-12-26T03:42:35.705Z,25.26
2022-12-26T03:43:35.676Z,25.28
2022-12-26T03:44:35.646Z,25.26
2022-12-26T03:45:35.638Z,25.26
2022-12-26T03:46:35.709Z,25.28
2022-12-26T03:47:35.591Z,25.28
2022-12-26T03:48:35.579Z,25.26
2022-12-26T03:49:35.551Z,25.28
2022-12-26T03:50:35.572Z,25.26
2022-12-26T03:51:35.496Z,25.28
2022-12-26T03:52:35.468Z,25.26
2022-12-26T03:53:35.430Z,25.28
2022-12-26T03:54:35.409Z,25.26
2022-12-26T03:55:35.399Z,25.23
2022-12-26T03:56:35.344Z,25.25
2022-12-26T03:57:35.344Z,25.25
2022-12-26T03:58:35.298Z,25.26
2022-12-26T03:59:35.303Z,25.26
2022-12-26T04:00:35.240Z,25.26
2022-12-26T04:01:35.372Z,25.26
2022-12-26T04:02:35.295Z,25.26
2022-12-26T04:03:35.258Z,25.25
2022-12-26T04:04:35.137Z,25.26
2022-12-26T04:05:35.106Z,25.28
2022-12-26T04:06:35.105Z,25.25
2022-12-26T04:07:35.045Z,25.26
2022-12-26T04:08:35.026Z,25.26
2022-12-26T04:09:34.987Z,25.26
2022-12-26T04:10:34.960Z,25.26
2022-12-26T04:11:34.941Z,25.25
2022-12-26T04:12:34.916Z,25.26
2022-12-26T04:13:34.975Z,25.23
2022-12-26T04:14:34.868Z,25.26
2022-12-26T04:15:34.932Z,25.26
2022-12-26T04:16:34.815Z,25.25
2022-12-26T04:17:34.794Z,25.26
2022-12-26T04:18:34.766Z,25.25
2022-12-26T04:19:34.733Z,25.25
2022-12-26T04:20:34.704Z,25.25
2022-12-26T04:21:34.697Z,25.22
2022-12-26T04:22:34.682Z,25.26
2022-12-26T04:23:34.624Z,25.25
2022-12-26T04:24:34.585Z,25.23
2022-12-26T04:25:49.991Z,25.22
2022-12-26T04:26:34.527Z,25.25
2022-12-26T04:27:34.502Z,25.25
2022-12-26T04:28:34.465Z,25.25
2022-12-26T04:29:34.441Z,25.25
2022-12-26T04:30:34.410Z,25.23
2022-12-26T04:31:34.575Z,25.25
2022-12-26T04:32:34.343Z,25.26
2022-12-26T04:33:34.308Z,25.25
2022-12-26T04:34:34.284Z,25.25
2022-12-26T04:35:34.261Z,25.25
2022-12-26T04:36:34.231Z,25.26
2022-12-26T04:37:34.195Z,25.25
2022-12-26T04:38:34.190Z,25.25
2022-12-26T04:39:34.127Z,25.23
2022-12-26T04:40:34.105Z,25.23
2022-12-26T04:41:34.082Z,25.25
2022-12-26T04:42:34.044Z,25.23
2022-12-26T04:43:48.710Z,25.25
2022-12-26T04:44:34.008Z,25.26
2022-12-26T04:45:33.963Z,25.25
2022-12-26T04:46:34.040Z,25.22
2022-12-26T04:47:33.890Z,25.23
2022-12-26T04:48:33.852Z,25.25
2022-12-26T04:49:33.822Z,25.23
2022-12-26T04:50:33.794Z,25.25
2022-12-26T04:51:33.784Z,25.25
2022-12-26T04:52:33.738Z,25.23
2022-12-26T04:53:33.705Z,25.22
2022-12-26T04:54:33.715Z,25.23
2022-12-26T04:55:33.653Z,25.26
2022-12-26T04:56:33.655Z,25.25
2022-12-26T04:57:33.579Z,25.25
2022-12-26T04:58:33.576Z,25.23
2022-12-26T04:59:33.531Z,25.23
2022-12-26T05:00:33.500Z,25.26
2022-12-26T05:01:33.600Z,25.22
2022-12-26T05:02:33.622Z,25.22
2022-12-26T05:03:33.493Z,25.22
2022-12-26T05:04:33.413Z,25.25
2022-12-26T05:05:33.368Z,25.23
2022-12-26T05:06:33.335Z,25.22
2022-12-26T05:07:33.308Z,25.25
2022-12-26T05:08:33.275Z,25.23
2022-12-26T05:09:33.244Z,25.23
2022-12-26T05:10:33.269Z,25.26
2022-12-26T05:11:33.185Z,25.22
2022-12-26T05:12:33.159Z,25.25
2022-12-26T05:13:33.125Z,25.23
2022-12-26T05:14:33.103Z,25.23
2022-12-26T05:15:33.157Z,25.22
2022-12-26T05:16:33.038Z,25.23
2022-12-26T05:17:33.007Z,25.23
2022-12-26T05:18:32.982Z,25.25
2022-12-26T05:19:32.964Z,25.23
2022-12-26T05:20:32.929Z,25.22
2022-12-26T05:21:32.898Z,25.26
2022-12-26T05:22:32.870Z,25.23
2022-12-26T05:23:32.837Z,25.22
2022-12-26T05:24:32.805Z,25.26
2022-12-26T05:25:32.781Z,25.23
2022-12-26T05:26:32.774Z,25.25
2022-12-26T05:27:32.717Z,25.23
2022-12-26T05:28:32.691Z,25.23
2022-12-26T05:29:32.659Z,25.23
2022-12-26T05:30:32.630Z,25.25
2022-12-26T05:31:36.111Z,25.22
2022-12-26T05:32:32.609Z,25.22
2022-12-26T05:33:33.286Z,25.28
2022-12-26T05:34:32.502Z,25.23
2022-12-26T05:35:32.504Z,25.23
2022-12-26T05:36:32.438Z,25.25
2022-12-26T05:37:32.433Z,25.23
2022-12-26T05:38:32.364Z,25.26
2022-12-26T05:39:32.337Z,25.23
2022-12-26T05:40:32.320Z,25.23
2022-12-26T05:41:32.266Z,25.21
2022-12-26T05:42:32.277Z,25.23
2022-12-26T05:43:32.224Z,25.25
2022-12-26T05:44:32.174Z,25.25
2022-12-26T05:45:32.148Z,25.23
2022-12-26T05:46:32.230Z,25.25
2022-12-26T05:47:32.096Z,25.25
2022-12-26T05:48:32.064Z,25.22
2022-12-26T05:49:32.027Z,25.23
2022-12-26T05:50:32.003Z,25.23
2022-12-26T05:51:31.991Z,25.22
2022-12-26T05:52:31.964Z,25.23
2022-12-26T05:53:31.926Z,25.22
2022-12-26T05:54:31.886Z,25.22
2022-12-26T05:55:31.853Z,25.25
2022-12-26T05:56:31.824Z,25.23
2022-12-26T05:57:31.797Z,25.23
2022-12-26T05:58:31.807Z,25.23
2022-12-26T05:59:31.760Z,25.22
2022-12-26T06:00:31.716Z,25.23
2022-12-26T06:01:31.879Z,25.22
2022-12-26T06:02:31.908Z,25.22
2022-12-26T06:03:31.720Z,25.22
2022-12-26T06:04:31.622Z,25.23
2022-12-26T06:05:31.592Z,25.23
2022-12-26T06:06:31.588Z,25.25
2022-12-26T06:07:31.537Z,25.22
2022-12-26T06:08:31.518Z,25.23
2022-12-26T06:09:31.483Z,25.22
2022-12-26T06:10:31.450Z,25.25
2022-12-26T06:11:31.422Z,25.23
2022-12-26T06:12:31.393Z,25.22
2022-12-26T06:13:31.370Z,25.22
2022-12-26T06:14:31.355Z,25.23
2022-12-26T06:15:31.307Z,25.25
2022-12-26T06:16:31.419Z,25.22
2022-12-26T06:17:31.291Z,25.23
2022-12-26T06:18:31.224Z,25.22
2022-12-26T06:19:31.191Z,25.23
2022-12-26T06:20:31.191Z,25.25
2022-12-26T06:21:31.131Z,25.23
2022-12-26T06:22:31.112Z,25.23
2022-12-26T06:23:31.087Z,25.22
2022-12-26T06:24:31.053Z,25.22
2022-12-26T06:25:31.027Z,25.22
2022-12-26T06:26:31.002Z,25.22
2022-12-26T06:27:30.972Z,25.22
2022-12-26T06:28:30.952Z,25.25
2022-12-26T06:29:30.911Z,25.22
2022-12-26T06:30:30.922Z,25.23
2022-12-26T06:31:30.901Z,25.25
2022-12-26T06:32:30.838Z,25.22
2022-12-26T06:33:30.822Z,25.23
2022-12-26T06:34:30.789Z,25.25
2022-12-26T06:35:30.773Z,25.22
2022-12-26T06:36:30.781Z,25.23
2022-12-26T06:37:30.723Z,25.25
2022-12-26T06:38:30.702Z,25.23
2022-12-26T06:39:30.675Z,25.22
2022-12-26T06:40:30.653Z,25.22
2022-12-26T06:41:30.633Z,25.22
2022-12-26T06:42:30.620Z,25.23
2022-12-26T06:43:30.584Z,25.23
2022-12-26T06:44:30.561Z,25.23
2022-12-26T06:45:30.539Z,25.22
2022-12-26T06:46:30.601Z,25.22
2022-12-26T06:47:30.488Z,25.22
2022-12-26T06:48:30.465Z,25.23
2022-12-26T06:49:32.882Z,25.22
2022-12-26T06:50:30.431Z,25.21
2022-12-26T06:51:30.412Z,25.23
2022-12-26T06:52:30.390Z,25.22
2022-12-26T06:53:30.385Z,25.23
2022-12-26T06:54:30.321Z,25.23
2022-12-26T06:55:30.317Z,25.22
2022-12-26T06:56:30.282Z,25.22
2022-12-26T06:57:30.243Z,25.22
2022-12-26T06:58:30.212Z,25.22
2022-12-26T06:59:30.196Z,25.22
2022-12-26T07:00:30.418Z,25.23
2022-12-26T07:01:30.294Z,25.22
2022-12-26T07:02:30.369Z,25.22
2022-12-26T07:03:30.099Z,25.23
2022-12-26T07:04:30.088Z,25.23
2022-12-26T07:05:30.056Z,25.22
2022-12-26T07:06:30.054Z,25.22
2022-12-26T07:07:30.019Z,25.23
2022-12-26T07:08:29.978Z,25.23
2022-12-26T07:09:33.920Z,25.23
2022-12-26T07:10:29.998Z,25.23
2022-12-26T07:11:29.904Z,25.22
2022-12-26T07:12:29.877Z,25.23
2022-12-26T07:13:29.854Z,25.21
2022-12-26T07:14:29.828Z,25.23
2022-12-26T07:15:29.808Z,25.22
2022-12-26T07:16:29.827Z,25.22
2022-12-26T07:17:29.762Z,25.22
2022-12-26T07:18:29.757Z,25.23
2022-12-26T07:19:29.710Z,25.21
2022-12-26T07:20:29.761Z,25.22
2022-12-26T07:21:33.445Z,25.25
2022-12-26T07:22:29.640Z,25.23
2022-12-26T07:23:29.603Z,25.22
2022-12-26T07:24:29.574Z,25.21
2022-12-26T07:25:29.547Z,25.22
2022-12-26T07:26:29.553Z,25.22
2022-12-26T07:27:29.506Z,25.22
2022-12-26T07:28:29.471Z,25.22
2022-12-26T07:29:29.452Z,25.22
2022-12-26T07:30:29.507Z,25.22
2022-12-26T07:31:29.500Z,25.23
2022-12-26T07:32:29.374Z,25.22
2022-12-26T07:33:29.335Z,25.23
2022-12-26T07:34:31.702Z,25.23
2022-12-26T07:35:29.275Z,25.21
2022-12-26T07:36:29.250Z,25.21
2022-12-26T07:37:29.232Z,25.23
2022-12-26T07:38:29.202Z,25.21
2022-12-26T07:39:29.176Z,25.22
2022-12-26T07:40:29.249Z,25.23
2022-12-26T07:41:29.135Z,25.22
2022-12-26T07:42:29.113Z,25.22
2022-12-26T07:43:29.091Z,25.22
2022-12-26T07:44:29.063Z,25.25
2022-12-26T07:45:29.087Z,25.23
2022-12-26T07:46:29.091Z,25.22
2022-12-26T07:47:28.991Z,25.22
2022-12-26T07:48:28.976Z,25.26
2022-12-26T07:49:28.943Z,25.21
2022-12-26T07:50:29.161Z,25.22
2022-12-26T07:51:28.941Z,25.22
2022-12-26T07:52:28.873Z,25.23
2022-12-26T07:53:28.860Z,25.25
2022-12-26T07:54:28.842Z,25.23
2022-12-26T07:55:28.805Z,25.22
2022-12-26T07:56:28.787Z,25.22
2022-12-26T07:58:28.735Z,25.22
2022-12-26T07:59:28.717Z,25.21
2022-12-26T08:00:28.717Z,25.23
2022-12-26T08:01:28.805Z,25.21
2022-12-26T08:02:28.893Z,25.22
2022-12-26T08:03:28.651Z,25.22
2022-12-26T08:04:28.612Z,25.22
2022-12-26T08:05:28.584Z,25.23
2022-12-26T08:06:28.581Z,25.22
2022-12-26T08:07:28.531Z,25.22
2022-12-26T08:08:28.508Z,25.25
2022-12-26T08:09:28.478Z,25.22
2022-12-26T08:10:28.480Z,25.21
2022-12-26T08:11:28.417Z,25.22
2022-12-26T08:12:28.393Z,25.22
2022-12-26T08:13:28.380Z,25.22
2022-12-26T08:14:28.344Z,25.22
2022-12-26T08:15:28.318Z,25.21
2022-12-26T08:16:28.335Z,25.23
2022-12-26T08:17:28.272Z,25.22
2022-12-26T08:18:28.248Z,25.23
2022-12-26T08:19:28.223Z,25.23
2022-12-26T08:20:28.205Z,25.22
2022-12-26T08:21:28.190Z,25.22
2022-12-26T08:22:28.188Z,25.25
2022-12-26T08:23:28.154Z,25.23
2022-12-26T08:24:28.138Z,25.23
2022-12-26T08:25:28.112Z,25.25
2022-12-26T08:26:28.095Z,25.22
2022-12-26T08:27:28.058Z,25.22
2022-12-26T08:28:28.064Z,25.25
2022-12-26T08:29:28.008Z,25.23
2022-12-26T08:30:28.002Z,25.23
2022-12-26T08:31:28.134Z,25.23
2022-12-26T08:32:27.945Z,25.25
2022-12-26T08:33:27.916Z,25.23
2022-12-26T08:34:27.895Z,25.23
2022-12-26T08:35:27.879Z,25.23
2022-12-26T08:36:27.848Z,25.25
2022-12-26T08:37:27.829Z,25.23
2022-12-26T08:38:31.719Z,25.22
2022-12-26T08:39:27.779Z,25.25
2022-12-26T08:40:42.573Z,25.23
2022-12-26T08:41:27.724Z,25.23
2022-12-26T08:42:27.696Z,25.23
2022-12-26T08:43:48.919Z,25.22
2022-12-26T08:44:28.713Z,25.22
2022-12-26T08:45:27.618Z,25.23
2022-12-26T08:46:27.624Z,25.22
2022-12-26T08:47:27.571Z,25.22
2022-12-26T08:48:27.536Z,25.25
2022-12-26T08:49:27.533Z,25.23
2022-12-26T08:50:27.524Z,25.21
2022-12-26T08:51:27.483Z,25.25
2022-12-26T08:52:27.443Z,25.25
2022-12-26T08:53:27.413Z,25.25
2022-12-26T08:54:27.430Z,25.23
2022-12-26T08:55:27.359Z,25.25
2022-12-26T08:56:27.331Z,25.26
2022-12-26T08:57:27.303Z,25.23
2022-12-26T08:58:27.300Z,25.23
2022-12-26T08:59:27.256Z,25.23
2022-12-26T09:00:27.212Z,25.25
2022-12-26T09:01:27.377Z,25.25
2022-12-26T09:02:27.404Z,25.25
2022-12-26T09:03:27.219Z,25.25
2022-12-26T09:04:27.094Z,25.23
2022-12-26T09:05:27.072Z,25.26
2022-12-26T09:06:27.047Z,25.22
2022-12-26T09:07:27.035Z,25.22
2022-12-26T09:08:27.002Z,25.25
2022-12-26T09:09:26.959Z,25.23
2022-12-26T09:10:26.954Z,25.26
2022-12-26T09:11:26.942Z,25.23
2022-12-26T09:12:26.870Z,25.25
2022-12-26T09:13:26.844Z,25.25
2022-12-26T09:14:26.817Z,25.25
2022-12-26T09:15:26.789Z,25.23
2022-12-26T09:16:26.864Z,25.26
2022-12-26T09:17:26.811Z,25.25
2022-12-26T09:18:26.708Z,25.26
2022-12-26T09:19:26.672Z,25.28
2022-12-26T09:20:26.645Z,25.26
2022-12-26T09:21:26.617Z,25.25
2022-12-26T09:22:28.272Z,25.25
2022-12-26T09:23:26.555Z,25.26
2022-12-26T09:24:26.525Z,25.23
2022-12-26T09:25:26.490Z,25.26
2022-12-26T09:26:26.487Z,25.26
2022-12-26T09:27:26.425Z,25.28
2022-12-26T09:28:26.403Z,25.26
2022-12-26T09:29:26.374Z,25.28
2022-12-26T09:30:26.357Z,25.25
2022-12-26T09:31:26.394Z,25.28
2022-12-26T09:32:26.290Z,25.28
2022-12-26T09:33:26.266Z,25.29
2022-12-26T09:34:26.252Z,25.26
2022-12-26T09:35:26.205Z,25.28
2022-12-26T09:36:26.183Z,25.29
2022-12-26T09:37:26.145Z,25.30
2022-12-26T09:38:26.123Z,25.29
2022-12-26T09:39:26.088Z,25.29
2022-12-26T09:40:26.060Z,25.26
2022-12-26T09:41:26.070Z,25.30
2022-12-26T09:42:26.025Z,25.28
2022-12-26T09:43:25.978Z,25.30
2022-12-26T09:44:25.948Z,25.30
2022-12-26T09:45:25.917Z,25.28
2022-12-26T09:46:25.950Z,25.28
2022-12-26T09:47:25.920Z,25.29
2022-12-26T09:48:25.836Z,25.28
2022-12-26T09:49:25.808Z,25.29
2022-12-26T09:50:25.794Z,25.28
2022-12-26T09:51:25.755Z,25.29
2022-12-26T09:52:25.729Z,25.30
2022-12-26T09:53:25.700Z,25.29
2022-12-26T09:54:25.670Z,25.32
2022-12-26T09:55:25.650Z,25.29
2022-12-26T09:57:25.626Z,25.29
2022-12-26T09:58:25.597Z,25.28
2022-12-26T09:59:25.545Z,25.30
2022-12-26T10:00:25.520Z,25.30
2022-12-26T10:01:25.587Z,25.30
2022-12-26T10:02:25.610Z,25.28
2022-12-26T10:03:25.434Z,25.30
2022-12-26T10:04:29.573Z,25.29
2022-12-26T10:05:25.581Z,25.32
2022-12-26T10:06:25.556Z,25.30
2022-12-26T10:07:25.525Z,25.32
2022-12-26T10:08:25.482Z,25.30
2022-12-26T10:09:25.451Z,25.32
2022-12-26T10:10:25.424Z,25.30
2022-12-26T10:11:25.390Z,25.30
2022-12-26T10:12:25.366Z,25.32
2022-12-26T10:13:25.332Z,25.30
2022-12-26T10:14:25.331Z,25.29
2022-12-26T10:15:25.277Z,25.33
2022-12-26T10:16:25.259Z,25.32
2022-12-26T10:17:25.902Z,25.33
2022-12-26T10:18:25.180Z,25.29
2022-12-26T10:19:32.050Z,25.29
2022-12-26T10:20:25.156Z,25.32
2022-12-26T10:21:25.090Z,25.30
2022-12-26T10:22:25.069Z,25.30
2022-12-26T10:23:25.050Z,25.30
2022-12-26T10:24:25.024Z,25.29
2022-12-26T10:25:28.823Z,25.29
2022-12-26T10:26:24.970Z,25.33
2022-12-26T10:27:24.957Z,25.32
2022-12-26T10:28:24.919Z,25.32
2022-12-26T10:29:24.887Z,25.30
2022-12-26T10:30:24.884Z,25.32
2022-12-26T10:31:24.932Z,25.32
2022-12-26T10:32:28.008Z,25.33
2022-12-26T10:33:24.771Z,25.30
2022-12-26T10:34:24.745Z,25.33
2022-12-26T10:35:24.711Z,25.30
2022-12-26T10:36:24.681Z,25.32
2022-12-26T10:37:24.653Z,25.30
2022-12-26T10:38:27.589Z,25.32
2022-12-26T10:39:24.602Z,25.30
2022-12-26T10:40:24.571Z,25.33
2022-12-26T10:41:24.548Z,25.35
2022-12-26T10:42:24.572Z,25.32
2022-12-26T10:43:24.506Z,25.33
2022-12-26T10:44:27.773Z,25.33
2022-12-26T10:45:24.457Z,25.32
2022-12-26T10:46:24.466Z,25.33
2022-12-26T10:47:24.419Z,25.33
2022-12-26T10:48:24.376Z,25.33
2022-12-26T10:49:24.358Z,25.32
2022-12-26T10:50:27.709Z,25.35
2022-12-26T10:51:24.292Z,25.33
2022-12-26T10:52:24.278Z,25.33
2022-12-26T10:53:24.229Z,25.33
2022-12-26T10:54:24.199Z,25.33
2022-12-26T10:55:28.466Z,25.32
2022-12-26T10:56:24.148Z,25.35
2022-12-26T10:57:24.114Z,25.30
2022-12-26T10:58:24.086Z,25.35
2022-12-26T10:59:24.116Z,25.33
2022-12-26T11:00:24.021Z,25.32
2022-12-26T11:01:24.146Z,25.33
2022-12-26T11:02:24.254Z,25.33
2022-12-26T11:03:24.075Z,25.32
2022-12-26T11:04:52.966Z,25.30
2022-12-26T11:05:57.022Z,25.33
2022-12-26T11:06:23.847Z,25.32
2022-12-26T11:07:23.816Z,25.35
2022-12-26T11:08:23.794Z,25.35
2022-12-26T11:09:23.746Z,25.32
2022-12-26T11:10:23.733Z,25.35
2022-12-26T11:11:23.696Z,25.32
2022-12-26T11:12:23.649Z,25.35
2022-12-26T11:13:23.617Z,25.33
2022-12-26T11:14:24.519Z,25.35
2022-12-26T11:15:23.548Z,25.32
2022-12-26T11:16:23.575Z,25.32
2022-12-26T11:17:23.484Z,25.33
2022-12-26T11:18:23.483Z,25.32
2022-12-26T11:19:23.424Z,25.35
2022-12-26T11:20:23.395Z,25.35
2022-12-26T11:21:23.385Z,25.33
2022-12-26T11:22:23.350Z,25.32
2022-12-26T11:23:23.320Z,25.35
2022-12-26T11:24:23.266Z,25.33
2022-12-26T11:25:23.248Z,25.38
2022-12-26T11:26:23.198Z,25.33
2022-12-26T11:27:23.170Z,25.38
2022-12-26T11:28:23.146Z,25.35
2022-12-26T11:29:23.109Z,25.35
2022-12-26T11:30:23.079Z,25.35
2022-12-26T11:31:23.133Z,25.33
2022-12-26T11:32:23.016Z,25.36
2022-12-26T11:33:23.000Z,25.38
2022-12-26T11:34:22.985Z,25.35
2022-12-26T11:35:22.931Z,25.35
2022-12-26T11:36:22.910Z,25.33
2022-12-26T11:37:22.869Z,25.36
2022-12-26T11:38:22.841Z,25.35
2022-12-26T11:39:22.814Z,25.36
2022-12-26T11:40:22.786Z,25.35
2022-12-26T11:41:22.745Z,25.36
2022-12-26T11:42:22.722Z,25.36
2022-12-26T11:43:22.692Z,25.36
2022-12-26T11:44:22.671Z,25.36
2022-12-26T11:45:22.639Z,25.39
2022-12-26T11:46:22.644Z,25.38
2022-12-26T11:47:22.583Z,25.33
2022-12-26T11:48:22.556Z,25.38
2022-12-26T11:49:22.526Z,25.35
2022-12-26T11:50:22.520Z,25.36
2022-12-26T11:51:22.468Z,25.36
2022-12-26T11:52:22.434Z,25.38
2022-12-26T11:53:22.428Z,25.39
2022-12-26T11:54:22.383Z,25.36
2022-12-26T11:55:22.389Z,25.36
2022-12-26T11:56:22.318Z,25.36
2022-12-26T11:57:22.382Z,25.36
2022-12-26T11:58:22.294Z,25.36
2022-12-26T11:59:22.246Z,25.38
2022-12-26T12:00:22.233Z,25.38
2022-12-26T12:01:22.192Z,25.38
2022-12-26T12:02:22.216Z,25.36
2022-12-26T12:03:22.267Z,25.39
2022-12-26T12:04:22.106Z,25.38
2022-12-26T12:05:22.131Z,25.38
2022-12-26T12:06:22.065Z,25.35
2022-12-26T12:07:22.023Z,25.38
2022-12-26T12:08:21.991Z,25.38
2022-12-26T12:09:21.990Z,25.39
2022-12-26T12:10:21.943Z,25.39
2022-12-26T12:11:21.908Z,25.36
2022-12-26T12:12:21.905Z,25.36
2022-12-26T12:13:21.849Z,25.39
2022-12-26T12:14:21.825Z,25.39
2022-12-26T12:15:21.793Z,25.38
2022-12-26T12:16:21.807Z,25.36
2022-12-26T12:17:21.743Z,25.38
2022-12-26T12:18:21.726Z,25.38
2022-12-26T12:19:21.694Z,25.38
2022-12-26T12:20:21.651Z,25.39
2022-12-26T12:21:21.623Z,25.38
2022-12-26T12:22:21.683Z,25.38
2022-12-26T12:23:21.594Z,25.38
2022-12-26T12:24:21.550Z,25.36
2022-12-26T12:25:21.523Z,25.38
2022-12-26T12:26:21.585Z,25.39
2022-12-26T12:27:21.469Z,25.39
2022-12-26T12:28:21.447Z,25.39
2022-12-26T12:29:21.421Z,25.39
2022-12-26T12:30:21.395Z,25.39
2022-12-26T12:31:21.413Z,25.39
2022-12-26T12:32:21.337Z,25.38
2022-12-26T12:33:21.311Z,25.40
2022-12-26T12:34:21.298Z,25.39
2022-12-26T12:35:21.262Z,25.40
2022-12-26T12:36:21.230Z,25.40
2022-12-26T12:37:21.206Z,25.40
2022-12-26T12:38:21.207Z,25.40
2022-12-26T12:39:21.172Z,25.39
2022-12-26T12:40:21.136Z,25.39
2022-12-26T12:41:21.109Z,25.40
2022-12-26T12:42:21.090Z,25.42
2022-12-26T12:43:21.054Z,25.40
2022-12-26T12:44:21.037Z,25.39
2022-12-26T12:45:21.002Z,25.40
2022-12-26T12:46:20.969Z,25.36
2022-12-26T12:47:20.936Z,25.39
2022-12-26T12:48:20.904Z,25.38
2022-12-26T12:49:20.876Z,25.35
2022-12-26T12:50:20.857Z,25.39
2022-12-26T12:51:20.817Z,25.38
2022-12-26T12:52:20.781Z,25.38
2022-12-26T12:53:20.770Z,25.39
2022-12-26T12:54:20.748Z,25.36
2022-12-26T12:55:20.698Z,25.38
2022-12-26T12:56:20.674Z,25.39
2022-12-26T12:57:20.636Z,25.38
2022-12-26T12:58:20.608Z,25.38
2022-12-26T12:59:20.571Z,25.36
2022-12-26T13:00:20.539Z,25.39
2022-12-26T13:01:20.603Z,25.38
2022-12-26T13:02:21.238Z,25.38
2022-12-26T13:03:20.476Z,25.36
2022-12-26T13:04:20.433Z,25.35
2022-12-26T13:05:20.385Z,25.38
2022-12-26T13:06:20.365Z,25.33
2022-12-26T13:07:20.330Z,25.33
2022-12-26T13:08:20.307Z,25.38
2022-12-26T13:09:20.309Z,25.38
2022-12-26T13:10:20.282Z,25.36
2022-12-26T13:11:20.220Z,25.39
2022-12-26T13:12:20.190Z,25.38
2022-12-26T13:13:20.167Z,25.36
2022-12-26T13:14:20.121Z,25.36
2022-12-26T13:15:20.090Z,25.38
2022-12-26T13:16:20.092Z,25.38
2022-12-26T13:17:20.031Z,25.36
2022-12-26T13:18:19.997Z,25.35
2022-12-26T13:19:19.964Z,25.35
2022-12-26T13:20:19.924Z,25.39
2022-12-26T13:21:19.905Z,25.36
2022-12-26T13:22:19.863Z,25.36
2022-12-26T13:23:19.827Z,25.36
2022-12-26T13:24:19.813Z,25.38
2022-12-26T13:25:19.780Z,25.35
2022-12-26T13:26:19.802Z,25.36
2022-12-26T13:27:19.702Z,25.35
2022-12-26T13:28:19.676Z,25.35
2022-12-26T13:29:19.651Z,25.36
2022-12-26T13:30:19.644Z,25.33
2022-12-26T13:31:19.669Z,25.33
2022-12-26T13:32:19.562Z,25.36
2022-12-26T13:33:19.531Z,25.36
2022-12-26T13:34:19.506Z,25.36
2022-12-26T13:35:19.488Z,25.33
2022-12-26T13:36:19.446Z,25.36
2022-12-26T13:37:19.426Z,25.38
2022-12-26T13:38:19.384Z,25.36
2022-12-26T13:39:19.356Z,25.33
2022-12-26T13:40:19.355Z,25.33
2022-12-26T13:41:19.292Z,25.33
2022-12-26T13:42:19.286Z,25.35
2022-12-26T13:43:19.228Z,25.32
2022-12-26T13:44:19.202Z,25.36
2022-12-26T13:45:19.183Z,25.36
2022-12-26T13:46:19.193Z,25.35
2022-12-26T13:47:19.121Z,25.38
2022-12-26T13:48:19.090Z,25.36
2022-12-26T13:49:19.061Z,25.33
2022-12-26T13:50:19.490Z,25.33
2022-12-26T13:51:19.003Z,25.36
2022-12-26T13:52:18.995Z,25.36
2022-12-26T13:53:18.956Z,25.32
2022-12-26T13:54:18.934Z,25.36
2022-12-26T13:55:18.905Z,25.35
2022-12-26T13:56:18.872Z,25.36
2022-12-26T13:57:18.845Z,25.38
2022-12-26T13:58:18.870Z,25.36
2022-12-26T13:59:18.781Z,25.36
2022-12-26T14:00:18.754Z,25.36
2022-12-26T14:01:18.851Z,25.38
2022-12-26T14:02:19.998Z,25.36
2022-12-26T14:03:20.461Z,25.36
2022-12-26T14:04:18.849Z,25.36
2022-12-26T14:05:18.720Z,25.36
2022-12-26T14:06:18.708Z,25.35
2022-12-26T14:07:18.663Z,25.36
2022-12-26T14:08:18.650Z,25.36
2022-12-26T14:09:18.628Z,25.39
2022-12-26T14:10:18.577Z,25.42
2022-12-26T14:11:18.563Z,25.39